Pagrindinis puslapis
METAR-TAF:

METAR-TAF

Oro uostai :

Dhahran, Saudo Arabija

platuma: 26-16N, ilguma: 050-09E, Aukštis: 26 m

Dabartinis oras

Ataskaita buvo paskelbta 1 valandą ir 19 minutes, ne 22:00 UTC
Vėjas 7 kt iš Vakarų/Šiaurės Vakarų
Temperatūra 29°C
Drėgmė 43%
Slėgis 1002 hPa
Matomumas 10 km arba daugiau
nėra debesų žemiau 1500 m ir nėra kamuolinių lietaus debesų

METAR: OEDR 242200Z 29007KT CAVOK 29/15 Q1002

Laikas: 02:19 (23:19 UTC)

Prognozė

Ataskaita buvo paskelbta 14 valandos ir 19 minutes, ne 09:00 UTC
Prognozė galioja nuo 24 metu 12 UTC su 25 metu 18 UTC
Vėjas 14 kt iš Šiaurės/Šiaurės Vakarų su gūsio iki 25 kt
Matomumas: 6000 m
Laikinai
nuo 25 metu 00 UTC su 25 metu 15 UTC
Matomumas: 3000 m
Dulkes pustymas
Tikimybė 30% :
Laikinai
nuo 25 metu 02 UTC su 25 metu 09 UTC
Matomumas: 1200 m

TAF: OEDR 240900Z 2412/2518 33014G25KT 6000 NSC TEMPO 2500/2515 3000 BLDU PROB30 TEMPO 2502/2509 1200

Orai ataskaitas ir orų prognozės (METAR, TAF).

turimą stotys yra geltonos ir raudonos taškus žemėlapyje.

Perkelti pele per norėdami pamatyti stoties vardą.

Tada spustelėkite, norėdami matyti oro stebėjimo ir prognozės.

Norėdami pakeisti žemėlapį: spustelėkite ant žalios mygtukų su juodo kryžiaus žemyn,; žalią mygtuką su brūkšneliu, jei norite nutolinti; arba žalių rodyklių gretimoms žemėlapius.


METAR-TAF: